createdAt,value
2019-05-09T00:01:48.390Z,11.00
2019-05-09T00:04:20.494Z,11.00
2019-05-09T00:06:54.379Z,10.90
2019-05-09T00:09:25.301Z,10.80
2019-05-09T00:11:57.208Z,10.90
2019-05-09T00:14:29.025Z,10.80
2019-05-09T00:17:00.618Z,10.90
2019-05-09T00:19:33.398Z,10.90
2019-05-09T00:22:06.580Z,10.90
2019-05-09T00:24:38.420Z,10.90
2019-05-09T00:27:09.952Z,11.00
2019-05-09T00:29:46.667Z,11.00
2019-05-09T00:32:24.707Z,11.00
2019-05-09T00:35:05.979Z,11.10
2019-05-09T00:37:54.911Z,11.10
2019-05-09T00:40:26.370Z,11.10
2019-05-09T00:42:58.326Z,11.10
2019-05-09T00:45:48.907Z,11.10
2019-05-09T00:48:23.381Z,11.10
2019-05-09T00:50:54.533Z,11.10
2019-05-09T00:53:25.934Z,11.10
2019-05-09T00:55:57.466Z,11.00
2019-05-09T00:58:30.471Z,11.00
2019-05-09T01:01:04.401Z,10.90
2019-05-09T01:03:35.623Z,10.80
2019-05-09T01:06:07.588Z,10.80
2019-05-09T01:08:39.861Z,10.70
2019-05-09T01:11:15.141Z,10.70
2019-05-09T01:13:44.666Z,10.70
2019-05-09T01:16:16.476Z,10.70
2019-05-09T01:18:48.319Z,10.60
2019-05-09T01:21:20.156Z,10.50
2019-05-09T01:23:53.851Z,10.50
2019-05-09T01:26:25.435Z,10.50
2019-05-09T01:28:57.083Z,10.40
2019-05-09T01:31:28.984Z,10.40
2019-05-09T01:34:13.392Z,10.40
2019-05-09T01:37:03.459Z,10.40
2019-05-09T01:39:36.609Z,10.30
2019-05-09T01:42:08.681Z,10.30
2019-05-09T01:44:40.620Z,10.20
2019-05-09T01:47:14.085Z,10.20
2019-05-09T01:49:45.649Z,10.20
2019-05-09T01:52:16.992Z,10.20
2019-05-09T01:54:49.722Z,10.30
2019-05-09T01:57:23.126Z,10.20
2019-05-09T01:59:54.596Z,10.20
2019-05-09T02:02:26.280Z,10.20
2019-05-09T02:04:58.155Z,10.20
2019-05-09T02:07:29.982Z,10.20
2019-05-09T02:10:03.431Z,10.20
2019-05-09T02:12:36.341Z,10.20
2019-05-09T02:15:16.639Z,10.30
2019-05-09T02:18:01.397Z,10.30
2019-05-09T02:20:28.145Z,10.30
2019-05-09T02:23:00.221Z,10.40
2019-05-09T02:25:33.510Z,10.40
2019-05-09T02:28:05.323Z,10.50
2019-05-09T02:30:37.483Z,10.50
2019-05-09T02:33:08.770Z,10.50
2019-05-09T02:35:51.695Z,10.50
2019-05-09T02:38:13.672Z,10.50
2019-05-09T02:40:48.503Z,10.50
2019-05-09T02:43:19.239Z,10.50
2019-05-09T02:46:03.269Z,10.50
2019-05-09T02:48:34.924Z,10.50
2019-05-09T02:51:08.926Z,10.60
2019-05-09T02:53:39.705Z,10.70
2019-05-09T02:56:11.589Z,10.70
2019-05-09T02:59:09.580Z,10.70
2019-05-09T03:01:59.259Z,10.70
2019-05-09T03:04:31.188Z,10.80
2019-05-09T03:07:02.582Z,10.70
2019-05-09T03:09:34.262Z,10.70
2019-05-09T03:12:22.753Z,10.70
2019-05-09T03:14:39.238Z,10.70
2019-05-09T03:17:10.891Z,10.70
2019-05-09T03:19:42.760Z,10.60
2019-05-09T03:22:18.946Z,10.60
2019-05-09T03:24:50.626Z,10.60
2019-05-09T03:27:28.714Z,10.60
2019-05-09T03:30:02.077Z,10.60
2019-05-09T03:32:33.383Z,10.60
2019-05-09T03:35:04.937Z,10.60
2019-05-09T03:37:37.834Z,10.60
2019-05-09T03:40:10.166Z,10.60
2019-05-09T03:42:43.831Z,10.50
2019-05-09T03:45:18.200Z,10.50
2019-05-09T03:47:54.415Z,10.60
2019-05-09T03:50:27.855Z,10.50
2019-05-09T03:52:58.452Z,10.50
2019-05-09T03:55:34.331Z,10.50
2019-05-09T03:58:13.212Z,10.50
2019-05-09T04:00:44.870Z,10.50
2019-05-09T04:03:19.851Z,10.60
2019-05-09T04:05:58.706Z,10.50
2019-05-09T04:08:23.728Z,10.50
2019-05-09T04:10:58.395Z,10.50
2019-05-09T04:13:33.324Z,10.60
2019-05-09T04:16:07.365Z,10.60
2019-05-09T04:18:40.371Z,10.60
2019-05-09T04:21:11.529Z,10.60
2019-05-09T04:23:43.725Z,10.60
2019-05-09T04:26:22.341Z,10.60
2019-05-09T04:28:53.928Z,10.60
2019-05-09T04:31:27.814Z,10.60
2019-05-09T04:33:58.981Z,10.60
2019-05-09T04:36:39.503Z,10.50
2019-05-09T04:39:21.019Z,10.50
2019-05-09T04:41:48.838Z,10.50
2019-05-09T04:44:28.224Z,10.50
2019-05-09T04:47:03.324Z,10.40
2019-05-09T04:49:39.344Z,10.40
2019-05-09T04:52:07.632Z,10.50
2019-05-09T04:54:39.294Z,10.60
2019-05-09T04:57:11.024Z,10.70
2019-05-09T04:59:42.863Z,10.90
2019-05-09T05:02:27.627Z,11.10
2019-05-09T05:04:59.311Z,11.30
2019-05-09T05:07:30.960Z,11.70
2019-05-09T05:10:02.611Z,11.70
2019-05-09T05:12:34.694Z,11.70
2019-05-09T05:15:07.984Z,11.60
2019-05-09T05:17:41.002Z,11.50
2019-05-09T05:20:18.581Z,11.40
2019-05-09T05:22:58.465Z,11.30
2019-05-09T05:25:30.072Z,11.30
2019-05-09T05:28:01.994Z,11.40
2019-05-09T05:30:33.580Z,11.60
2019-05-09T05:33:09.762Z,12.40
2019-05-09T05:35:48.089Z,13.20
2019-05-09T05:38:19.468Z,13.40
2019-05-09T05:40:50.993Z,13.40
2019-05-09T05:43:22.237Z,13.40
2019-05-09T05:46:08.321Z,14.40
2019-05-09T05:48:41.294Z,15.70
2019-05-09T05:51:12.305Z,16.10
2019-05-09T05:53:43.963Z,16.40
2019-05-09T05:56:17.567Z,17.30
2019-05-09T05:58:50.458Z,18.30
2019-05-09T06:01:22.438Z,19.20
2019-05-09T06:03:54.087Z,19.80
2019-05-09T06:06:25.377Z,20.60
2019-05-09T06:08:57.914Z,21.10
2019-05-09T06:11:29.812Z,20.00
2019-05-09T06:14:08.809Z,18.50
2019-05-09T06:16:37.550Z,16.90
2019-05-09T06:19:08.962Z,15.70
2019-05-09T06:21:40.830Z,14.90
2019-05-09T06:24:12.124Z,14.40
2019-05-09T06:26:43.140Z,14.00
2019-05-09T06:29:17.519Z,14.00
2019-05-09T06:31:48.566Z,13.80
2019-05-09T06:34:20.509Z,13.50
2019-05-09T06:36:52.097Z,13.20
2019-05-09T06:39:23.786Z,13.10
2019-05-09T06:41:57.515Z,13.00
2019-05-09T06:44:47.980Z,12.90
2019-05-09T06:47:24.324Z,12.90
2019-05-09T06:49:57.497Z,13.00
2019-05-09T06:52:30.043Z,13.00
2019-05-09T06:55:01.597Z,13.00
2019-05-09T06:57:33.509Z,13.10
2019-05-09T07:00:08.441Z,13.30
2019-05-09T07:02:57.449Z,13.40
2019-05-09T07:05:51.928Z,13.40
2019-05-09T07:08:31.497Z,13.40
2019-05-09T07:11:03.539Z,13.50
2019-05-09T07:13:35.444Z,13.60
2019-05-09T07:16:08.923Z,13.50
2019-05-09T07:18:40.525Z,13.50
2019-05-09T07:21:12.880Z,13.60
2019-05-09T07:23:44.890Z,13.90
2019-05-09T07:26:19.020Z,14.00
2019-05-09T07:28:50.327Z,14.00
2019-05-09T07:31:40.629Z,14.10
2019-05-09T07:34:19.367Z,14.30
2019-05-09T07:36:51.157Z,14.40
2019-05-09T07:39:22.160Z,14.90
2019-05-09T07:41:53.178Z,15.60
2019-05-09T07:44:24.555Z,15.80
2019-05-09T07:46:58.467Z,15.90
2019-05-09T07:49:31.635Z,15.90
2019-05-09T07:52:06.868Z,16.40
2019-05-09T07:54:37.677Z,16.50
2019-05-09T07:57:09.366Z,16.10
2019-05-09T07:59:42.099Z,15.70
2019-05-09T08:02:14.220Z,15.60
2019-05-09T08:04:48.640Z,15.30
2019-05-09T08:07:18.849Z,15.50
2019-05-09T08:09:50.695Z,15.90
2019-05-09T08:12:21.955Z,16.20
2019-05-09T08:15:07.471Z,16.20
2019-05-09T08:17:28.590Z,16.40
2019-05-09T08:20:00.502Z,16.80
2019-05-09T08:22:32.468Z,17.00
2019-05-09T08:25:03.899Z,17.70
2019-05-09T08:27:37.602Z,18.40
2019-05-09T08:30:08.530Z,18.40
2019-05-09T08:32:40.397Z,18.70
2019-05-09T08:35:12.165Z,19.20
2019-05-09T08:37:43.440Z,19.70
2019-05-09T08:40:14.983Z,19.80
2019-05-09T08:42:48.016Z,19.30
2019-05-09T08:45:27.515Z,19.40
2019-05-09T08:47:53.306Z,20.30
2019-05-09T08:50:38.676Z,20.90
2019-05-09T08:53:09.590Z,21.20
2019-05-09T08:55:41.200Z,21.90
2019-05-09T08:58:12.804Z,21.90
2019-05-09T09:00:44.077Z,21.60
2019-05-09T09:03:18.344Z,21.70
2019-05-09T09:05:49.588Z,21.50
2019-05-09T09:08:21.566Z,21.40
2019-05-09T09:10:57.659Z,20.50
2019-05-09T09:13:28.389Z,20.20
2019-05-09T09:16:14.454Z,20.40
2019-05-09T09:18:33.134Z,20.10
2019-05-09T09:21:04.484Z,19.80
2019-05-09T09:23:43.958Z,19.50
2019-05-09T09:26:09.817Z,19.20
2019-05-09T09:28:41.744Z,19.60
2019-05-09T09:31:13.637Z,20.30
2019-05-09T09:33:45.170Z,20.60
2019-05-09T09:36:17.898Z,20.80
2019-05-09T09:38:49.953Z,21.00
2019-05-09T09:41:21.520Z,21.40
2019-05-09T09:43:53.587Z,21.80
2019-05-09T09:46:25.209Z,21.90
2019-05-09T09:48:58.566Z,22.20
2019-05-09T09:51:30.441Z,22.00
2019-05-09T09:54:02.137Z,22.20
2019-05-09T09:56:33.678Z,22.90
2019-05-09T09:59:22.894Z,23.40
2019-05-09T10:01:55.313Z,23.10
2019-05-09T10:04:28.400Z,22.50
2019-05-09T10:07:00.274Z,21.40
2019-05-09T10:09:32.221Z,21.10
2019-05-09T10:12:03.590Z,21.10
2019-05-09T10:14:38.853Z,21.40
2019-05-09T10:17:32.153Z,21.00
2019-05-09T10:20:22.539Z,21.10
2019-05-09T10:22:59.869Z,21.20
2019-05-09T10:25:27.665Z,21.20
2019-05-09T10:27:59.602Z,21.60
2019-05-09T10:30:33.694Z,22.10
2019-05-09T10:33:05.364Z,22.70
2019-05-09T10:35:39.249Z,22.00
2019-05-09T10:38:10.309Z,21.20
2019-05-09T10:40:41.657Z,20.80
2019-05-09T10:43:35.746Z,20.70
2019-05-09T10:46:15.369Z,20.70
2019-05-09T10:48:51.390Z,20.20
2019-05-09T10:51:22.750Z,19.60
2019-05-09T10:53:54.099Z,19.50
2019-05-09T10:56:27.852Z,19.40
2019-05-09T10:58:58.673Z,19.40
2019-05-09T11:01:30.327Z,19.40
2019-05-09T11:04:01.949Z,19.10
2019-05-09T11:06:33.804Z,19.00
2019-05-09T11:09:09.274Z,19.10
2019-05-09T11:11:41.003Z,19.40
2019-05-09T11:14:28.722Z,19.90
2019-05-09T11:16:49.313Z,19.60
2019-05-09T11:19:19.603Z,19.40
2019-05-09T11:21:50.902Z,19.30
2019-05-09T11:24:37.013Z,19.40
2019-05-09T11:26:58.697Z,19.40
2019-05-09T11:29:29.744Z,18.90
2019-05-09T11:32:01.037Z,18.40
2019-05-09T11:34:32.669Z,17.90
2019-05-09T11:37:04.008Z,17.80
2019-05-09T11:39:41.782Z,17.90
2019-05-09T11:42:09.249Z,18.10
2019-05-09T11:44:41.560Z,18.20
2019-05-09T11:47:30.919Z,18.20
2019-05-09T11:49:48.251Z,18.20
2019-05-09T11:52:19.903Z,18.10
2019-05-09T11:54:51.868Z,18.10
2019-05-09T11:57:22.884Z,18.20
2019-05-09T11:59:54.637Z,18.40
2019-05-09T12:02:27.942Z,18.20
2019-05-09T12:05:01.194Z,18.10
2019-05-09T12:07:32.762Z,18.20
2019-05-09T12:10:07.605Z,18.20
2019-05-09T12:12:39.024Z,18.20
2019-05-09T12:15:11.304Z,18.50
2019-05-09T12:17:56.585Z,18.70
2019-05-09T12:20:18.098Z,19.00
2019-05-09T12:22:50.092Z,19.10
2019-05-09T12:25:21.436Z,19.10
2019-05-09T12:27:52.969Z,19.10
2019-05-09T12:30:24.656Z,18.90
2019-05-09T12:32:58.621Z,18.90
2019-05-09T12:35:29.966Z,18.90
2019-05-09T12:38:01.272Z,19.10
2019-05-09T12:40:33.869Z,19.20
2019-05-09T12:43:05.313Z,19.20
2019-05-09T12:45:38.728Z,19.40
2019-05-09T12:48:15.369Z,19.50
2019-05-09T12:50:44.214Z,19.30
2019-05-09T12:53:15.539Z,19.20
2019-05-09T12:55:47.546Z,19.20
2019-05-09T12:58:28.394Z,19.20
2019-05-09T13:01:00.763Z,19.30
2019-05-09T13:03:32.182Z,19.20
2019-05-09T13:06:04.233Z,19.10
2019-05-09T13:08:38.324Z,19.10
2019-05-09T13:11:09.297Z,19.30
2019-05-09T13:13:41.719Z,19.40
2019-05-09T13:16:23.097Z,19.00
2019-05-09T13:19:08.250Z,18.60
2019-05-09T13:21:40.159Z,18.40
2019-05-09T13:24:11.484Z,18.40
2019-05-09T13:26:47.813Z,18.50
2019-05-09T13:29:18.058Z,18.50
2019-05-09T13:31:49.651Z,18.50
2019-05-09T13:34:22.555Z,18.40
2019-05-09T13:36:54.165Z,18.50
2019-05-09T13:39:27.796Z,18.50
2019-05-09T13:41:59.489Z,18.40
2019-05-09T13:44:31.500Z,18.40
2019-05-09T13:47:02.836Z,18.40
2019-05-09T13:49:34.736Z,18.60
2019-05-09T13:52:09.909Z,18.70
2019-05-09T13:54:39.799Z,18.70
2019-05-09T13:57:11.717Z,18.80
2019-05-09T13:59:43.647Z,18.90
2019-05-09T14:02:15.329Z,19.10
2019-05-09T14:04:48.590Z,19.30
2019-05-09T14:07:21.123Z,19.50
2019-05-09T14:09:52.652Z,19.50
2019-05-09T14:12:24.235Z,19.30
2019-05-09T14:14:58.033Z,19.30
2019-05-09T14:17:44.645Z,19.30
2019-05-09T14:20:03.296Z,19.50
2019-05-09T14:22:34.395Z,19.70
2019-05-09T14:25:08.180Z,19.70
2019-05-09T14:27:39.390Z,19.80
2019-05-09T14:30:11.394Z,19.80
2019-05-09T14:32:43.194Z,19.90
2019-05-09T14:35:14.536Z,19.90
2019-05-09T14:37:48.574Z,19.80
2019-05-09T14:40:20.699Z,19.40
2019-05-09T14:42:52.891Z,19.20
2019-05-09T14:45:24.266Z,19.20
2019-05-09T14:47:58.593Z,19.20
2019-05-09T14:50:29.379Z,19.10
2019-05-09T14:53:00.399Z,19.10
2019-05-09T14:55:32.065Z,19.30
2019-05-09T14:58:03.669Z,19.30
2019-05-09T15:00:35.613Z,19.40
2019-05-09T15:03:08.188Z,19.30
2019-05-09T15:05:39.375Z,19.20
2019-05-09T15:08:10.395Z,19.00
2019-05-09T15:10:41.676Z,18.90
2019-05-09T15:13:13.280Z,18.70
2019-05-09T15:15:47.876Z,18.60
2019-05-09T15:18:18.712Z,18.50
2019-05-09T15:20:50.072Z,18.30
2019-05-09T15:23:21.702Z,18.20
2019-05-09T15:25:53.528Z,18.00
2019-05-09T15:28:25.450Z,17.80
2019-05-09T15:30:59.355Z,17.70
2019-05-09T15:33:30.059Z,17.70
2019-05-09T15:36:02.139Z,17.60
2019-05-09T15:38:33.701Z,17.50
2019-05-09T15:41:11.441Z,17.60
2019-05-09T15:43:38.870Z,17.60
2019-05-09T15:46:18.492Z,17.50
2019-05-09T15:48:48.854Z,17.50
2019-05-09T15:51:20.491Z,17.60
2019-05-09T15:53:52.540Z,17.60
2019-05-09T15:56:24.196Z,17.60
2019-05-09T15:58:57.838Z,17.50
2019-05-09T16:01:28.726Z,17.30
2019-05-09T16:04:00.214Z,17.20
2019-05-09T16:06:33.299Z,17.20
2019-05-09T16:09:11.139Z,17.20
2019-05-09T16:11:39.805Z,17.10
2019-05-09T16:14:11.116Z,17.20
2019-05-09T16:16:43.090Z,17.30
2019-05-09T16:19:14.833Z,17.50
2019-05-09T16:21:47.750Z,17.70
2019-05-09T16:24:19.797Z,17.80
2019-05-09T16:26:51.388Z,17.80
2019-05-09T16:29:22.607Z,17.80
2019-05-09T16:31:54.539Z,17.80
2019-05-09T16:34:28.240Z,17.80
2019-05-09T16:36:59.358Z,17.70
2019-05-09T16:39:30.922Z,17.70
2019-05-09T16:42:02.490Z,17.60
2019-05-09T16:44:34.879Z,17.60
2019-05-09T16:47:08.373Z,17.50
2019-05-09T16:49:40.017Z,17.40
2019-05-09T16:52:11.765Z,17.30
2019-05-09T16:54:49.859Z,17.10
2019-05-09T16:57:19.283Z,16.90
2019-05-09T16:59:51.378Z,16.70
2019-05-09T17:02:24.942Z,16.60
2019-05-09T17:04:57.691Z,16.40
2019-05-09T17:07:29.066Z,16.30
2019-05-09T17:10:00.937Z,16.20
2019-05-09T17:12:33.061Z,16.20
2019-05-09T17:15:04.682Z,16.10
2019-05-09T17:17:38.474Z,16.10
2019-05-09T17:20:11.948Z,16.10
2019-05-09T17:23:11.587Z,16.20
2019-05-09T17:25:34.650Z,16.30
2019-05-09T17:28:06.086Z,16.30
2019-05-09T17:30:38.508Z,16.30
2019-05-09T17:33:10.829Z,16.40
2019-05-09T17:35:42.236Z,16.50
2019-05-09T17:38:14.113Z,16.50
2019-05-09T17:40:48.233Z,16.50
2019-05-09T17:43:18.891Z,16.50
2019-05-09T17:45:50.782Z,16.40
2019-05-09T17:48:22.492Z,16.40
2019-05-09T17:50:54.286Z,16.30
2019-05-09T17:53:25.539Z,16.30
2019-05-09T17:55:58.604Z,16.20
2019-05-09T17:58:33.449Z,16.10
2019-05-09T18:01:03.916Z,16.00
2019-05-09T18:03:35.313Z,15.90
2019-05-09T18:06:08.317Z,15.90
2019-05-09T18:08:40.631Z,15.80
2019-05-09T18:11:13.035Z,15.80
2019-05-09T18:13:45.077Z,15.70
2019-05-09T18:16:19.058Z,15.70
2019-05-09T18:18:50.672Z,15.70
2019-05-09T18:21:22.698Z,15.70
2019-05-09T18:23:54.763Z,15.70
2019-05-09T18:26:27.527Z,15.70
2019-05-09T18:29:01.858Z,15.70
2019-05-09T18:31:52.181Z,15.70
2019-05-09T18:34:23.826Z,15.50
2019-05-09T18:36:55.755Z,15.50
2019-05-09T18:39:27.839Z,15.40
2019-05-09T18:41:59.694Z,15.50
2019-05-09T18:44:31.310Z,15.40
2019-05-09T18:47:03.233Z,15.30
2019-05-09T18:49:34.232Z,15.30
2019-05-09T18:52:05.385Z,15.30
2019-05-09T18:54:37.288Z,15.20
2019-05-09T18:57:08.999Z,15.20
2019-05-09T18:59:40.675Z,15.20
2019-05-09T19:02:15.378Z,15.20
2019-05-09T19:04:47.389Z,15.10
2019-05-09T19:07:22.488Z,15.00
2019-05-09T19:09:52.930Z,14.90
2019-05-09T19:12:25.920Z,14.80
2019-05-09T19:14:57.732Z,14.80
2019-05-09T19:17:46.998Z,14.70
2019-05-09T19:20:32.952Z,14.70
2019-05-09T19:23:04.630Z,14.70
2019-05-09T19:25:36.538Z,14.70
2019-05-09T19:28:07.780Z,14.70
2019-05-09T19:30:39.731Z,14.70
2019-05-09T19:33:11.550Z,14.80
2019-05-09T19:35:42.853Z,14.80
2019-05-09T19:38:14.198Z,14.90
2019-05-09T19:40:45.528Z,14.90
2019-05-09T19:43:17.076Z,14.80
2019-05-09T19:45:48.681Z,14.80
2019-05-09T19:48:20.591Z,14.70
2019-05-09T19:50:52.209Z,14.50
2019-05-09T19:53:24.015Z,14.50
2019-05-09T19:55:55.351Z,14.40
2019-05-09T19:58:26.685Z,14.30
2019-05-09T20:00:58.322Z,14.30
2019-05-09T20:03:30.554Z,14.20
2019-05-09T20:06:02.597Z,14.10
2019-05-09T20:08:34.451Z,14.10
2019-05-09T20:11:24.093Z,14.10
2019-05-09T20:14:15.583Z,14.10
2019-05-09T20:16:50.083Z,14.10
2019-05-09T20:19:21.807Z,14.10
2019-05-09T20:21:53.796Z,14.10
2019-05-09T20:24:26.000Z,14.10
2019-05-09T20:26:58.049Z,14.20
2019-05-09T20:29:30.420Z,14.10
2019-05-09T20:32:02.342Z,14.10
2019-05-09T20:34:34.447Z,14.10
2019-05-09T20:37:06.199Z,14.00
2019-05-09T20:39:37.640Z,14.00
2019-05-09T20:42:09.136Z,13.90
2019-05-09T20:44:40.888Z,13.90
2019-05-09T20:47:12.390Z,14.00
2019-05-09T20:49:44.190Z,14.10
2019-05-09T20:52:15.693Z,14.10
2019-05-09T20:54:47.408Z,14.00
2019-05-09T20:57:19.435Z,13.90
2019-05-09T20:59:51.437Z,13.90
2019-05-09T21:02:23.704Z,13.90
2019-05-09T21:04:54.882Z,13.90
2019-05-09T21:07:26.350Z,13.80
2019-05-09T21:09:58.370Z,13.90
2019-05-09T21:12:30.173Z,13.90
2019-05-09T21:15:01.702Z,13.80
2019-05-09T21:17:33.433Z,13.90
2019-05-09T21:20:05.232Z,13.90
2019-05-09T21:22:37.098Z,13.80
2019-05-09T21:25:10.081Z,13.80
2019-05-09T21:27:42.356Z,13.80
2019-05-09T21:30:14.154Z,13.80
2019-05-09T21:32:45.741Z,13.80
2019-05-09T21:35:17.703Z,13.70
2019-05-09T21:37:49.481Z,13.70
2019-05-09T21:40:22.161Z,13.70
2019-05-09T21:42:55.347Z,13.70
2019-05-09T21:45:27.311Z,13.70
2019-05-09T21:47:58.931Z,13.80
2019-05-09T21:50:29.937Z,13.70
2019-05-09T21:53:01.330Z,13.60
2019-05-09T21:55:32.954Z,13.60
2019-05-09T21:58:04.791Z,13.60
2019-05-09T22:00:39.710Z,13.60
2019-05-09T22:03:11.393Z,13.60
2019-05-09T22:05:43.018Z,13.60
2019-05-09T22:08:14.899Z,13.60
2019-05-09T22:10:46.549Z,13.60
2019-05-09T22:13:18.374Z,13.60
2019-05-09T22:15:49.898Z,13.60
2019-05-09T22:18:21.560Z,13.50
2019-05-09T22:20:52.833Z,13.50
2019-05-09T22:23:24.086Z,13.50
2019-05-09T22:25:56.656Z,13.50
2019-05-09T22:28:28.618Z,13.50
2019-05-09T22:31:00.701Z,13.40
2019-05-09T22:33:33.751Z,13.50
2019-05-09T22:36:05.702Z,13.50
2019-05-09T22:38:37.085Z,13.50
2019-05-09T22:41:09.163Z,13.40
2019-05-09T22:43:41.249Z,13.40
2019-05-09T22:46:12.569Z,13.40
2019-05-09T22:48:44.205Z,13.40
2019-05-09T22:51:15.929Z,13.40
2019-05-09T22:53:47.828Z,13.40
2019-05-09T22:56:19.509Z,13.40
2019-05-09T22:58:50.800Z,13.40
2019-05-09T23:01:22.446Z,13.40
2019-05-09T23:03:53.705Z,13.30
2019-05-09T23:06:25.270Z,13.20
2019-05-09T23:08:56.780Z,13.10
2019-05-09T23:11:28.610Z,13.10
2019-05-09T23:14:00.462Z,13.10
2019-05-09T23:16:33.975Z,13.10
2019-05-09T23:19:05.490Z,13.00
2019-05-09T23:21:37.121Z,13.10
2019-05-09T23:24:10.348Z,13.00
2019-05-09T23:26:42.004Z,13.00
2019-05-09T23:29:13.961Z,13.00
2019-05-09T23:32:01.405Z,13.00
2019-05-09T23:34:32.726Z,13.00
2019-05-09T23:37:04.284Z,13.00
2019-05-09T23:39:40.735Z,13.00
2019-05-09T23:42:12.279Z,13.00
2019-05-09T23:44:43.617Z,12.90
2019-05-09T23:47:14.956Z,12.90
2019-05-09T23:49:46.662Z,12.90
2019-05-09T23:52:18.696Z,12.90
2019-05-09T23:55:08.498Z,12.80
2019-05-09T23:57:58.091Z,12.80
